sensor_id;sensor_type;location;lat;lon;timestamp;P1;durP1;ratioP1;P2;durP2;ratioP2
38425;SDS011;24210;51.460;6.148;2022-09-03T00:02:53;4.10;;;1.83;;
38425;SDS011;24210;51.460;6.148;2022-09-03T00:08:20;4.97;;;2.30;;
38425;SDS011;24210;51.460;6.148;2022-09-03T00:10:49;2.83;;;1.90;;
38425;SDS011;24210;51.460;6.148;2022-09-03T00:13:21;6.97;;;1.50;;
38425;SDS011;24210;51.460;6.148;2022-09-03T00:15:47;4.20;;;1.77;;
38425;SDS011;24210;51.460;6.148;2022-09-03T00:18:15;5.30;;;2.33;;
38425;SDS011;24210;51.460;6.148;2022-09-03T00:20:44;4.35;;;1.70;;
38425;SDS011;24210;51.460;6.148;2022-09-03T00:23:13;2.03;;;1.55;;
38425;SDS011;24210;51.460;6.148;2022-09-03T00:25:42;6.22;;;2.10;;
38425;SDS011;24210;51.460;6.148;2022-09-03T00:28:16;4.07;;;1.77;;
38425;SDS011;24210;51.460;6.148;2022-09-03T00:30:42;5.22;;;1.65;;
38425;SDS011;24210;51.460;6.148;2022-09-03T00:33:11;3.60;;;1.67;;
38425;SDS011;24210;51.460;6.148;2022-09-03T00:35:45;4.78;;;1.85;;
38425;SDS011;24210;51.460;6.148;2022-09-03T00:38:11;4.20;;;2.15;;
38425;SDS011;24210;51.460;6.148;2022-09-03T00:43:19;3.30;;;1.37;;
38425;SDS011;24210;51.460;6.148;2022-09-03T00:45:53;3.35;;;1.95;;
38425;SDS011;24210;51.460;6.148;2022-09-03T00:48:22;4.25;;;1.60;;
38425;SDS011;24210;51.460;6.148;2022-09-03T00:51:13;3.78;;;1.58;;
38425;SDS011;24210;51.460;6.148;2022-09-03T01:09:52;4.30;;;1.40;;
38425;SDS011;24210;51.460;6.148;2022-09-03T01:12:31;2.75;;;1.38;;
38425;SDS011;24210;51.460;6.148;2022-09-03T01:15:11;2.95;;;1.50;;
38425;SDS011;24210;51.460;6.148;2022-09-03T01:23:07;3.17;;;1.40;;
38425;SDS011;24210;51.460;6.148;2022-09-03T01:25:53;5.15;;;1.60;;
38425;SDS011;24210;51.460;6.148;2022-09-03T01:28:26;3.38;;;1.35;;
38425;SDS011;24210;51.460;6.148;2022-09-03T01:33:27;4.00;;;1.83;;
38425;SDS011;24210;51.460;6.148;2022-09-03T01:36:30;4.05;;;1.80;;
38425;SDS011;24210;51.460;6.148;2022-09-03T01:39:01;8.60;;;1.50;;
38425;SDS011;24210;51.460;6.148;2022-09-03T01:44:41;3.22;;;1.77;;
38425;SDS011;24210;51.460;6.148;2022-09-03T01:49:53;3.10;;;1.48;;
38425;SDS011;24210;51.460;6.148;2022-09-03T01:52:28;4.38;;;2.38;;
38425;SDS011;24210;51.460;6.148;2022-09-03T01:55:10;6.15;;;1.90;;
38425;SDS011;24210;51.460;6.148;2022-09-03T01:57:54;2.72;;;1.55;;
38425;SDS011;24210;51.460;6.148;2022-09-03T02:00:21;10.55;;;1.80;;
38425;SDS011;24210;51.460;6.148;2022-09-03T02:02:47;2.60;;;1.33;;
38425;SDS011;24210;51.460;6.148;2022-09-03T02:07:40;3.87;;;1.23;;
38425;SDS011;24210;51.460;6.148;2022-09-03T02:10:07;5.35;;;2.28;;
38425;SDS011;24210;51.460;6.148;2022-09-03T02:12:33;2.38;;;1.40;;
38425;SDS011;24210;51.460;6.148;2022-09-03T02:15:00;2.90;;;1.50;;
38425;SDS011;24210;51.460;6.148;2022-09-03T02:17:28;4.40;;;1.70;;
38425;SDS011;24210;51.460;6.148;2022-09-03T02:19:53;1.70;;;1.35;;
38425;SDS011;24210;51.460;6.148;2022-09-03T02:22:19;4.30;;;1.20;;
38425;SDS011;24210;51.460;6.148;2022-09-03T02:24:44;2.33;;;1.67;;
38425;SDS011;24210;51.460;6.148;2022-09-03T02:27:09;1.60;;;1.33;;
38425;SDS011;24210;51.460;6.148;2022-09-03T02:29:34;1.97;;;1.50;;
38425;SDS011;24210;51.460;6.148;2022-09-03T02:32:00;3.80;;;1.20;;
38425;SDS011;24210;51.460;6.148;2022-09-03T02:34:25;1.83;;;1.30;;
38425;SDS011;24210;51.460;6.148;2022-09-03T02:36:50;4.00;;;1.33;;
38425;SDS011;24210;51.460;6.148;2022-09-03T02:39:16;4.23;;;1.57;;
38425;SDS011;24210;51.460;6.148;2022-09-03T02:41:41;4.70;;;1.57;;
38425;SDS011;24210;51.460;6.148;2022-09-03T02:44:20;2.28;;;1.85;;
38425;SDS011;24210;51.460;6.148;2022-09-03T02:46:57;4.25;;;0.90;;
38425;SDS011;24210;51.460;6.148;2022-09-03T02:49:23;3.80;;;1.15;;
38425;SDS011;24210;51.460;6.148;2022-09-03T02:51:48;1.80;;;1.07;;
38425;SDS011;24210;51.460;6.148;2022-09-03T02:54:14;4.37;;;0.97;;
38425;SDS011;24210;51.460;6.148;2022-09-03T02:56:39;2.63;;;1.73;;
38425;SDS011;24210;51.460;6.148;2022-09-03T02:59:05;5.00;;;1.30;;
38425;SDS011;24210;51.460;6.148;2022-09-03T03:01:31;6.80;;;1.35;;
38425;SDS011;24210;51.460;6.148;2022-09-03T03:03:56;2.47;;;1.17;;
38425;SDS011;24210;51.460;6.148;2022-09-03T03:06:21;3.00;;;1.30;;
38425;SDS011;24210;51.460;6.148;2022-09-03T03:08:47;3.17;;;1.70;;
38425;SDS011;24210;51.460;6.148;2022-09-03T03:11:13;3.40;;;1.30;;
38425;SDS011;24210;51.460;6.148;2022-09-03T03:13:42;4.50;;;1.20;;
38425;SDS011;24210;51.460;6.148;2022-09-03T03:16:07;5.80;;;1.40;;
38425;SDS011;24210;51.460;6.148;2022-09-03T03:18:33;4.57;;;1.43;;
38425;SDS011;24210;51.460;6.148;2022-09-03T03:21:03;1.30;;;1.20;;
38425;SDS011;24210;51.460;6.148;2022-09-03T03:23:30;2.65;;;1.25;;
38425;SDS011;24210;51.460;6.148;2022-09-03T03:25:59;4.53;;;1.67;;
38425;SDS011;24210;51.460;6.148;2022-09-03T03:28:24;1.92;;;1.45;;
38425;SDS011;24210;51.460;6.148;2022-09-03T03:30:50;4.55;;;0.73;;
38425;SDS011;24210;51.460;6.148;2022-09-03T03:33:16;4.75;;;1.20;;
38425;SDS011;24210;51.460;6.148;2022-09-03T03:35:42;2.87;;;1.27;;
38425;SDS011;24210;51.460;6.148;2022-09-03T03:38:07;3.13;;;1.50;;
38425;SDS011;24210;51.460;6.148;2022-09-03T03:40:32;2.13;;;1.20;;
38425;SDS011;24210;51.460;6.148;2022-09-03T03:42:58;3.15;;;1.40;;
38425;SDS011;24210;51.460;6.148;2022-09-03T03:45:23;2.07;;;1.07;;
38425;SDS011;24210;51.460;6.148;2022-09-03T03:47:49;2.97;;;1.20;;
38425;SDS011;24210;51.460;6.148;2022-09-03T03:50:14;3.27;;;1.37;;
38425;SDS011;24210;51.460;6.148;2022-09-03T03:55:06;2.67;;;1.57;;
38425;SDS011;24210;51.460;6.148;2022-09-03T03:57:31;2.93;;;1.20;;
38425;SDS011;24210;51.460;6.148;2022-09-03T03:59:57;2.70;;;1.30;;
38425;SDS011;24210;51.460;6.148;2022-09-03T04:02:22;3.20;;;1.30;;
38425;SDS011;24210;51.460;6.148;2022-09-03T04:04:47;2.03;;;1.40;;
38425;SDS011;24210;51.460;6.148;2022-09-03T04:07:12;5.17;;;1.67;;
38425;SDS011;24210;51.460;6.148;2022-09-03T04:09:37;4.77;;;1.30;;
38425;SDS011;24210;51.460;6.148;2022-09-03T04:12:03;3.87;;;1.37;;
38425;SDS011;24210;51.460;6.148;2022-09-03T04:14:32;2.63;;;1.40;;
38425;SDS011;24210;51.460;6.148;2022-09-03T04:16:58;3.07;;;1.47;;
38425;SDS011;24210;51.460;6.148;2022-09-03T04:19:23;2.83;;;1.50;;
38425;SDS011;24210;51.460;6.148;2022-09-03T04:21:49;1.97;;;1.50;;
38425;SDS011;24210;51.460;6.148;2022-09-03T04:24:14;3.97;;;1.50;;
38425;SDS011;24210;51.460;6.148;2022-09-03T04:26:39;3.47;;;1.30;;
38425;SDS011;24210;51.460;6.148;2022-09-03T04:29:05;4.60;;;1.90;;
38425;SDS011;24210;51.460;6.148;2022-09-03T04:31:31;3.67;;;1.88;;
38425;SDS011;24210;51.460;6.148;2022-09-03T04:33:56;4.87;;;1.67;;
38425;SDS011;24210;51.460;6.148;2022-09-03T04:36:23;4.63;;;1.83;;
38425;SDS011;24210;51.460;6.148;2022-09-03T04:38:49;3.38;;;1.77;;
38425;SDS011;24210;51.460;6.148;2022-09-03T04:41:16;3.33;;;1.80;;
38425;SDS011;24210;51.460;6.148;2022-09-03T04:46:07;4.78;;;1.83;;
38425;SDS011;24210;51.460;6.148;2022-09-03T04:48:35;2.40;;;1.57;;
38425;SDS011;24210;51.460;6.148;2022-09-03T04:51:07;4.93;;;2.20;;
38425;SDS011;24210;51.460;6.148;2022-09-03T04:53:37;4.32;;;1.88;;
38425;SDS011;24210;51.460;6.148;2022-09-03T04:56:02;3.20;;;2.03;;
38425;SDS011;24210;51.460;6.148;2022-09-03T04:58:28;3.57;;;1.90;;
38425;SDS011;24210;51.460;6.148;2022-09-03T05:00:53;2.43;;;1.50;;
38425;SDS011;24210;51.460;6.148;2022-09-03T05:03:18;4.63;;;1.60;;
38425;SDS011;24210;51.460;6.148;2022-09-03T05:05:51;3.72;;;1.70;;
38425;SDS011;24210;51.460;6.148;2022-09-03T05:08:16;3.15;;;1.83;;
38425;SDS011;24210;51.460;6.148;2022-09-03T05:10:42;3.67;;;2.00;;
38425;SDS011;24210;51.460;6.148;2022-09-03T05:13:07;5.80;;;2.07;;
38425;SDS011;24210;51.460;6.148;2022-09-03T05:15:32;5.33;;;2.17;;
38425;SDS011;24210;51.460;6.148;2022-09-03T05:17:58;3.73;;;1.60;;
38425;SDS011;24210;51.460;6.148;2022-09-03T05:20:24;5.77;;;1.60;;
38425;SDS011;24210;51.460;6.148;2022-09-03T05:22:49;6.50;;;2.37;;
38425;SDS011;24210;51.460;6.148;2022-09-03T05:25:14;7.37;;;2.83;;
38425;SDS011;24210;51.460;6.148;2022-09-03T05:27:40;8.23;;;2.33;;
38425;SDS011;24210;51.460;6.148;2022-09-03T05:30:05;4.47;;;2.33;;
38425;SDS011;24210;51.460;6.148;2022-09-03T05:32:31;4.70;;;2.22;;
38425;SDS011;24210;51.460;6.148;2022-09-03T05:34:56;6.20;;;2.23;;
38425;SDS011;24210;51.460;6.148;2022-09-03T05:37:22;5.00;;;2.27;;
38425;SDS011;24210;51.460;6.148;2022-09-03T05:39:47;4.53;;;2.10;;
38425;SDS011;24210;51.460;6.148;2022-09-03T05:42:12;5.50;;;2.23;;
38425;SDS011;24210;51.460;6.148;2022-09-03T05:44:38;6.95;;;2.47;;
38425;SDS011;24210;51.460;6.148;2022-09-03T05:47:04;9.23;;;2.53;;
38425;SDS011;24210;51.460;6.148;2022-09-03T05:49:29;5.87;;;1.70;;
38425;SDS011;24210;51.460;6.148;2022-09-03T05:51:56;7.78;;;2.47;;
38425;SDS011;24210;51.460;6.148;2022-09-03T05:54:21;4.53;;;2.13;;
38425;SDS011;24210;51.460;6.148;2022-09-03T05:56:46;3.50;;;1.93;;
38425;SDS011;24210;51.460;6.148;2022-09-03T05:59:12;4.03;;;2.00;;
38425;SDS011;24210;51.460;6.148;2022-09-03T06:01:38;2.93;;;2.37;;
38425;SDS011;24210;51.460;6.148;2022-09-03T06:04:04;4.68;;;2.17;;
38425;SDS011;24210;51.460;6.148;2022-09-03T06:06:31;6.00;;;3.85;;
38425;SDS011;24210;51.460;6.148;2022-09-03T06:08:58;11.10;;;2.88;;
38425;SDS011;24210;51.460;6.148;2022-09-03T06:11:24;4.20;;;1.75;;
38425;SDS011;24210;51.460;6.148;2022-09-03T06:13:51;3.33;;;2.00;;
38425;SDS011;24210;51.460;6.148;2022-09-03T06:16:17;4.37;;;2.30;;
38425;SDS011;24210;51.460;6.148;2022-09-03T06:18:42;4.53;;;1.90;;
38425;SDS011;24210;51.460;6.148;2022-09-03T06:21:07;4.73;;;2.10;;
38425;SDS011;24210;51.460;6.148;2022-09-03T06:23:33;4.33;;;1.80;;
38425;SDS011;24210;51.460;6.148;2022-09-03T06:26:03;3.85;;;1.48;;
38425;SDS011;24210;51.460;6.148;2022-09-03T06:28:30;5.90;;;2.35;;
38425;SDS011;24210;51.460;6.148;2022-09-03T06:30:58;2.78;;;1.70;;
38425;SDS011;24210;51.460;6.148;2022-09-03T06:33:23;5.57;;;2.10;;
38425;SDS011;24210;51.460;6.148;2022-09-03T06:35:51;3.67;;;1.90;;
38425;SDS011;24210;51.460;6.148;2022-09-03T06:38:16;4.63;;;2.08;;
38425;SDS011;24210;51.460;6.148;2022-09-03T06:40:43;3.85;;;1.63;;
38425;SDS011;24210;51.460;6.148;2022-09-03T06:45:35;3.28;;;1.63;;
38425;SDS011;24210;51.460;6.148;2022-09-03T06:48:00;4.20;;;2.10;;
38425;SDS011;24210;51.460;6.148;2022-09-03T06:50:26;5.27;;;1.83;;
38425;SDS011;24210;51.460;6.148;2022-09-03T06:52:54;3.67;;;1.63;;
38425;SDS011;24210;51.460;6.148;2022-09-03T06:55:22;5.90;;;1.70;;
38425;SDS011;24210;51.460;6.148;2022-09-03T06:57:47;4.05;;;1.70;;
38425;SDS011;24210;51.460;6.148;2022-09-03T07:00:13;3.67;;;1.58;;
38425;SDS011;24210;51.460;6.148;2022-09-03T07:02:39;3.10;;;1.57;;
38425;SDS011;24210;51.460;6.148;2022-09-03T07:05:05;1.30;;;0.90;;
38425;SDS011;24210;51.460;6.148;2022-09-03T07:07:31;3.80;;;1.05;;
38425;SDS011;24210;51.460;6.148;2022-09-03T07:09:56;3.87;;;1.13;;
38425;SDS011;24210;51.460;6.148;2022-09-03T07:12:21;2.43;;;1.00;;
38425;SDS011;24210;51.460;6.148;2022-09-03T07:14:47;3.47;;;0.97;;
38425;SDS011;24210;51.460;6.148;2022-09-03T07:17:12;1.70;;;1.03;;
38425;SDS011;24210;51.460;6.148;2022-09-03T07:19:37;3.93;;;1.43;;
38425;SDS011;24210;51.460;6.148;2022-09-03T07:22:02;2.20;;;1.03;;
38425;SDS011;24210;51.460;6.148;2022-09-03T07:24:27;2.23;;;0.87;;
38425;SDS011;24210;51.460;6.148;2022-09-03T07:26:53;3.07;;;1.07;;
38425;SDS011;24210;51.460;6.148;2022-09-03T07:29:18;3.23;;;0.80;;
38425;SDS011;24210;51.460;6.148;2022-09-03T07:31:45;1.73;;;0.77;;
38425;SDS011;24210;51.460;6.148;2022-09-03T07:34:11;10.93;;;1.20;;
38425;SDS011;24210;51.460;6.148;2022-09-03T07:36:38;4.35;;;0.95;;
38425;SDS011;24210;51.460;6.148;2022-09-03T07:39:05;4.10;;;1.00;;
38425;SDS011;24210;51.460;6.148;2022-09-03T07:41:31;2.73;;;0.93;;
38425;SDS011;24210;51.460;6.148;2022-09-03T07:43:57;1.65;;;1.02;;
38425;SDS011;24210;51.460;6.148;2022-09-03T07:46:24;4.20;;;0.90;;
38425;SDS011;24210;51.460;6.148;2022-09-03T07:48:50;3.55;;;1.60;;
38425;SDS011;24210;51.460;6.148;2022-09-03T07:53:42;13.03;;;1.23;;
38425;SDS011;24210;51.460;6.148;2022-09-03T07:56:07;1.17;;;1.07;;
38425;SDS011;24210;51.460;6.148;2022-09-03T07:58:34;0.77;;;0.47;;
38425;SDS011;24210;51.460;6.148;2022-09-03T08:01:06;1.00;;;0.88;;
38425;SDS011;24210;51.460;6.148;2022-09-03T08:03:35;2.20;;;1.10;;
38425;SDS011;24210;51.460;6.148;2022-09-03T08:06:01;4.55;;;1.00;;
38425;SDS011;24210;51.460;6.148;2022-09-03T08:08:27;1.15;;;0.52;;
38425;SDS011;24210;51.460;6.148;2022-09-03T08:10:52;1.83;;;0.90;;
38425;SDS011;24210;51.460;6.148;2022-09-03T08:13:17;2.97;;;1.00;;
38425;SDS011;24210;51.460;6.148;2022-09-03T08:15:43;4.73;;;1.50;;
38425;SDS011;24210;51.460;6.148;2022-09-03T08:18:17;2.05;;;0.70;;
38425;SDS011;24210;51.460;6.148;2022-09-03T08:20:42;1.27;;;0.77;;
38425;SDS011;24210;51.460;6.148;2022-09-03T08:23:07;3.33;;;0.93;;
38425;SDS011;24210;51.460;6.148;2022-09-03T08:25:32;2.80;;;0.87;;
38425;SDS011;24210;51.460;6.148;2022-09-03T08:27:58;1.80;;;1.27;;
38425;SDS011;24210;51.460;6.148;2022-09-03T08:30:23;3.80;;;1.43;;
38425;SDS011;24210;51.460;6.148;2022-09-03T08:32:49;3.40;;;0.87;;
38425;SDS011;24210;51.460;6.148;2022-09-03T08:35:14;1.30;;;0.83;;
38425;SDS011;24210;51.460;6.148;2022-09-03T08:37:39;2.23;;;0.97;;
38425;SDS011;24210;51.460;6.148;2022-09-03T08:40:05;1.53;;;0.80;;
38425;SDS011;24210;51.460;6.148;2022-09-03T08:42:42;0.80;;;0.75;;
38425;SDS011;24210;51.460;6.148;2022-09-03T08:45:10;2.33;;;0.90;;
38425;SDS011;24210;51.460;6.148;2022-09-03T08:47:41;5.72;;;0.77;;
38425;SDS011;24210;51.460;6.148;2022-09-03T08:50:15;3.08;;;0.73;;
38425;SDS011;24210;51.460;6.148;2022-09-03T08:57:35;3.93;;;0.83;;
38425;SDS011;24210;51.460;6.148;2022-09-03T09:00:04;1.13;;;0.60;;
38425;SDS011;24210;51.460;6.148;2022-09-03T09:05:16;3.35;;;0.82;;
38425;SDS011;24210;51.460;6.148;2022-09-03T09:07:49;1.65;;;0.70;;
38425;SDS011;24210;51.460;6.148;2022-09-03T09:12:46;5.83;;;1.27;;
38425;SDS011;24210;51.460;6.148;2022-09-03T09:15:29;4.50;;;1.00;;
38425;SDS011;24210;51.460;6.148;2022-09-03T09:20:42;5.50;;;0.90;;
38425;SDS011;24210;51.460;6.148;2022-09-03T09:26:14;1.48;;;0.77;;
38425;SDS011;24210;51.460;6.148;2022-09-03T09:28:39;2.83;;;0.75;;
38425;SDS011;24210;51.460;6.148;2022-09-03T09:31:06;1.23;;;0.80;;
38425;SDS011;24210;51.460;6.148;2022-09-03T09:33:33;2.95;;;0.63;;
38425;SDS011;24210;51.460;6.148;2022-09-03T09:36:00;4.20;;;0.87;;
38425;SDS011;24210;51.460;6.148;2022-09-03T09:38:28;1.45;;;0.63;;
38425;SDS011;24210;51.460;6.148;2022-09-03T09:40:53;4.22;;;1.00;;
38425;SDS011;24210;51.460;6.148;2022-09-03T09:43:21;4.15;;;0.75;;
38425;SDS011;24210;51.460;6.148;2022-09-03T09:45:47;2.00;;;1.30;;
38425;SDS011;24210;51.460;6.148;2022-09-03T09:50:41;2.75;;;0.88;;
38425;SDS011;24210;51.460;6.148;2022-09-03T09:53:07;1.10;;;1.00;;
38425;SDS011;24210;51.460;6.148;2022-09-03T09:55:54;1.83;;;0.82;;
38425;SDS011;24210;51.460;6.148;2022-09-03T09:58:21;3.50;;;0.60;;
38425;SDS011;24210;51.460;6.148;2022-09-03T10:00:57;1.27;;;0.80;;
38425;SDS011;24210;51.460;6.148;2022-09-03T10:03:24;4.55;;;1.50;;
38425;SDS011;24210;51.460;6.148;2022-09-03T10:06:08;1.53;;;0.90;;
38425;SDS011;24210;51.460;6.148;2022-09-03T10:08:52;2.45;;;0.80;;
38425;SDS011;24210;51.460;6.148;2022-09-03T10:11:19;2.60;;;1.13;;
38425;SDS011;24210;51.460;6.148;2022-09-03T10:19:21;1.17;;;1.08;;
38425;SDS011;24210;51.460;6.148;2022-09-03T10:21:56;2.95;;;1.05;;
38425;SDS011;24210;51.460;6.148;2022-09-03T10:27:06;4.00;;;0.98;;
38425;SDS011;24210;51.460;6.148;2022-09-03T10:29:34;2.53;;;0.90;;
38425;SDS011;24210;51.460;6.148;2022-09-03T10:34:43;1.75;;;1.13;;
38425;SDS011;24210;51.460;6.148;2022-09-03T10:37:21;2.55;;;0.75;;
38425;SDS011;24210;51.460;6.148;2022-09-03T10:47:38;6.60;;;1.33;;
38425;SDS011;24210;51.460;6.148;2022-09-03T10:52:40;4.53;;;1.10;;
38425;SDS011;24210;51.460;6.148;2022-09-03T10:55:12;6.47;;;0.70;;
38425;SDS011;24210;51.460;6.148;2022-09-03T10:58:24;3.33;;;1.55;;
38425;SDS011;24210;51.460;6.148;2022-09-03T11:00:28;4.28;;;0.85;;
38425;SDS011;24210;51.460;6.148;2022-09-03T11:03:11;2.35;;;0.88;;
38425;SDS011;24210;51.460;6.148;2022-09-03T11:05:44;3.47;;;1.10;;
38425;SDS011;24210;51.460;6.148;2022-09-03T11:08:24;8.43;;;1.83;;
38425;SDS011;24210;51.460;6.148;2022-09-03T11:11:12;6.75;;;1.90;;
38425;SDS011;24210;51.460;6.148;2022-09-03T11:13:40;6.60;;;1.63;;
38425;SDS011;24210;51.460;6.148;2022-09-03T11:18:40;7.40;;;1.50;;
38425;SDS011;24210;51.460;6.148;2022-09-03T11:21:08;5.10;;;1.88;;
38425;SDS011;24210;51.460;6.148;2022-09-03T11:23:36;2.13;;;1.00;;
38425;SDS011;24210;51.460;6.148;2022-09-03T11:26:05;1.50;;;0.95;;
38425;SDS011;24210;51.460;6.148;2022-09-03T11:28:42;2.55;;;1.23;;
38425;SDS011;24210;51.460;6.148;2022-09-03T11:31:16;4.03;;;1.05;;
38425;SDS011;24210;51.460;6.148;2022-09-03T11:33:50;4.82;;;0.90;;
38425;SDS011;24210;51.460;6.148;2022-09-03T11:36:22;2.17;;;1.25;;
38425;SDS011;24210;51.460;6.148;2022-09-03T11:38:49;4.72;;;1.10;;
38425;SDS011;24210;51.460;6.148;2022-09-03T11:41:36;5.13;;;0.97;;
38425;SDS011;24210;51.460;6.148;2022-09-03T11:44:13;2.60;;;1.48;;
38425;SDS011;24210;51.460;6.148;2022-09-03T11:46:41;2.55;;;1.10;;
38425;SDS011;24210;51.460;6.148;2022-09-03T11:49:24;3.45;;;1.25;;
38425;SDS011;24210;51.460;6.148;2022-09-03T11:52:09;3.78;;;1.17;;
38425;SDS011;24210;51.460;6.148;2022-09-03T11:54:44;3.80;;;1.00;;
38425;SDS011;24210;51.460;6.148;2022-09-03T11:57:13;2.55;;;1.13;;
38425;SDS011;24210;51.460;6.148;2022-09-03T11:59:40;2.05;;;1.02;;
38425;SDS011;24210;51.460;6.148;2022-09-03T12:02:15;4.32;;;1.20;;
38425;SDS011;24210;51.460;6.148;2022-09-03T12:17:56;3.42;;;1.48;;
38425;SDS011;24210;51.460;6.148;2022-09-03T12:25:52;3.88;;;1.30;;
38425;SDS011;24210;51.460;6.148;2022-09-03T12:28:18;1.70;;;1.60;;
38425;SDS011;24210;51.460;6.148;2022-09-03T12:30:45;2.20;;;1.25;;
38425;SDS011;24210;51.460;6.148;2022-09-03T12:33:11;1.50;;;1.23;;
38425;SDS011;24210;51.460;6.148;2022-09-03T12:35:38;3.92;;;1.50;;
38425;SDS011;24210;51.460;6.148;2022-09-03T12:38:03;4.67;;;1.47;;
38425;SDS011;24210;51.460;6.148;2022-09-03T12:40:29;6.83;;;1.60;;
38425;SDS011;24210;51.460;6.148;2022-09-03T12:42:54;3.38;;;1.70;;
38425;SDS011;24210;51.460;6.148;2022-09-03T12:45:21;2.70;;;1.87;;
38425;SDS011;24210;51.460;6.148;2022-09-03T12:47:46;3.63;;;1.70;;
38425;SDS011;24210;51.460;6.148;2022-09-03T12:50:14;4.85;;;1.52;;
38425;SDS011;24210;51.460;6.148;2022-09-03T12:55:48;3.53;;;1.67;;
38425;SDS011;24210;51.460;6.148;2022-09-03T12:58:16;2.72;;;1.55;;
38425;SDS011;24210;51.460;6.148;2022-09-03T13:00:41;5.55;;;1.48;;
38425;SDS011;24210;51.460;6.148;2022-09-03T13:05:44;2.33;;;1.85;;
38425;SDS011;24210;51.460;6.148;2022-09-03T13:08:22;1.85;;;1.65;;
38425;SDS011;24210;51.460;6.148;2022-09-03T13:10:52;1.77;;;1.57;;
38425;SDS011;24210;51.460;6.148;2022-09-03T13:13:23;3.10;;;1.42;;
38425;SDS011;24210;51.460;6.148;2022-09-03T13:21:04;5.30;;;1.97;;
38425;SDS011;24210;51.460;6.148;2022-09-03T13:26:13;1.58;;;1.25;;
38425;SDS011;24210;51.460;6.148;2022-09-03T13:34:12;2.10;;;1.60;;
38425;SDS011;24210;51.460;6.148;2022-09-03T13:36:55;1.80;;;1.33;;
38425;SDS011;24210;51.460;6.148;2022-09-03T13:41:55;2.97;;;1.60;;
38425;SDS011;24210;51.460;6.148;2022-09-03T13:49:54;1.88;;;1.33;;
38425;SDS011;24210;51.460;6.148;2022-09-03T13:52:48;2.95;;;1.23;;
38425;SDS011;24210;51.460;6.148;2022-09-03T13:55:19;3.47;;;1.63;;
38425;SDS011;24210;51.460;6.148;2022-09-03T13:57:48;3.20;;;2.03;;
38425;SDS011;24210;51.460;6.148;2022-09-03T14:00:22;3.22;;;1.60;;
38425;SDS011;24210;51.460;6.148;2022-09-03T14:02:50;3.97;;;1.83;;
38425;SDS011;24210;51.460;6.148;2022-09-03T14:08:03;1.63;;;1.52;;
38425;SDS011;24210;51.460;6.148;2022-09-03T14:10:36;4.70;;;2.10;;
38425;SDS011;24210;51.460;6.148;2022-09-03T14:13:13;3.55;;;1.90;;
38425;SDS011;24210;51.460;6.148;2022-09-03T14:15:42;2.67;;;1.70;;
38425;SDS011;24210;51.460;6.148;2022-09-03T14:18:09;1.35;;;1.20;;
38425;SDS011;24210;51.460;6.148;2022-09-03T14:20:47;1.70;;;1.60;;
38425;SDS011;24210;51.460;6.148;2022-09-03T14:25:51;1.57;;;1.20;;
38425;SDS011;24210;51.460;6.148;2022-09-03T14:28:28;2.88;;;1.63;;
38425;SDS011;24210;51.460;6.148;2022-09-03T14:33:38;3.95;;;1.33;;
38425;SDS011;24210;51.460;6.148;2022-09-03T14:38:36;4.80;;;1.40;;
38425;SDS011;24210;51.460;6.148;2022-09-03T14:41:09;3.28;;;1.83;;
38425;SDS011;24210;51.460;6.148;2022-09-03T14:44:01;1.80;;;1.65;;
38425;SDS011;24210;51.460;6.148;2022-09-03T14:55:38;1.70;;;1.60;;
38425;SDS011;24210;51.460;6.148;2022-09-03T15:00:19;1.90;;;1.80;;
38425;SDS011;24210;51.460;6.148;2022-09-03T15:05:37;2.55;;;1.98;;
38425;SDS011;24210;51.460;6.148;2022-09-03T15:10:49;2.17;;;1.98;;
38425;SDS011;24210;51.460;6.148;2022-09-03T15:20:51;2.65;;;2.00;;
38425;SDS011;24210;51.460;6.148;2022-09-03T15:33:57;1.67;;;1.58;;
38425;SDS011;24210;51.460;6.148;2022-09-03T15:36:23;3.67;;;2.07;;
38425;SDS011;24210;51.460;6.148;2022-09-03T15:39:01;3.28;;;1.63;;
38425;SDS011;24210;51.460;6.148;2022-09-03T15:44:00;2.78;;;1.48;;
38425;SDS011;24210;51.460;6.148;2022-09-03T15:51:29;2.13;;;1.63;;
38425;SDS011;24210;51.460;6.148;2022-09-03T15:53:57;2.47;;;1.80;;
38425;SDS011;24210;51.460;6.148;2022-09-03T15:56:30;2.25;;;1.63;;
38425;SDS011;24210;51.460;6.148;2022-09-03T16:01:58;3.17;;;1.90;;
38425;SDS011;24210;51.460;6.148;2022-09-03T16:04:24;1.73;;;1.63;;
38425;SDS011;24210;51.460;6.148;2022-09-03T16:06:59;2.10;;;2.00;;
38425;SDS011;24210;51.460;6.148;2022-09-03T16:09:35;2.20;;;2.00;;
38425;SDS011;24210;51.460;6.148;2022-09-03T16:12:15;2.65;;;1.98;;
38425;SDS011;24210;51.460;6.148;2022-09-03T16:14:50;4.82;;;2.20;;
38425;SDS011;24210;51.460;6.148;2022-09-03T16:17:27;2.20;;;2.10;;
38425;SDS011;24210;51.460;6.148;2022-09-03T16:20:05;2.20;;;2.00;;
38425;SDS011;24210;51.460;6.148;2022-09-03T16:22:32;3.72;;;2.05;;
38425;SDS011;24210;51.460;6.148;2022-09-03T16:25:06;2.60;;;2.40;;
38425;SDS011;24210;51.460;6.148;2022-09-03T16:30:00;1.77;;;1.67;;
38425;SDS011;24210;51.460;6.148;2022-09-03T16:37:20;2.73;;;2.23;;
38425;SDS011;24210;51.460;6.148;2022-09-03T16:45:08;4.57;;;3.07;;
38425;SDS011;24210;51.460;6.148;2022-09-03T16:55:28;2.38;;;1.60;;
38425;SDS011;24210;51.460;6.148;2022-09-03T17:00:21;6.37;;;2.67;;
38425;SDS011;24210;51.460;6.148;2022-09-03T17:10:49;2.53;;;1.98;;
38425;SDS011;24210;51.460;6.148;2022-09-03T17:13:38;2.70;;;2.13;;
38425;SDS011;24210;51.460;6.148;2022-09-03T17:19:05;5.30;;;2.42;;
38425;SDS011;24210;51.460;6.148;2022-09-03T17:24:02;2.20;;;2.00;;
38425;SDS011;24210;51.460;6.148;2022-09-03T17:27:14;5.78;;;2.00;;
38425;SDS011;24210;51.460;6.148;2022-09-03T17:31:53;2.30;;;2.00;;
38425;SDS011;24210;51.460;6.148;2022-09-03T17:49:28;3.95;;;2.00;;
38425;SDS011;24210;51.460;6.148;2022-09-03T17:52:11;2.70;;;2.30;;
38425;SDS011;24210;51.460;6.148;2022-09-03T17:54:44;1.83;;;1.73;;
38425;SDS011;24210;51.460;6.148;2022-09-03T18:05:40;3.65;;;2.63;;
38425;SDS011;24210;51.460;6.148;2022-09-03T18:12:57;4.38;;;2.30;;
38425;SDS011;24210;51.460;6.148;2022-09-03T18:15:37;5.50;;;2.75;;
38425;SDS011;24210;51.460;6.148;2022-09-03T18:18:17;3.70;;;2.17;;
38425;SDS011;24210;51.460;6.148;2022-09-03T18:20:50;3.67;;;2.30;;
38425;SDS011;24210;51.460;6.148;2022-09-03T18:23:42;4.20;;;2.50;;
38425;SDS011;24210;51.460;6.148;2022-09-03T18:26:29;4.22;;;2.72;;
38425;SDS011;24210;51.460;6.148;2022-09-03T18:32:17;4.90;;;3.60;;
38425;SDS011;24210;51.460;6.148;2022-09-03T18:35:02;2.88;;;2.33;;
38425;SDS011;24210;51.460;6.148;2022-09-03T18:37:45;8.48;;;3.15;;
38425;SDS011;24210;51.460;6.148;2022-09-03T18:40:32;5.70;;;3.10;;
38425;SDS011;24210;51.460;6.148;2022-09-03T18:43:22;4.57;;;2.60;;
38425;SDS011;24210;51.460;6.148;2022-09-03T18:46:15;4.13;;;2.35;;
38425;SDS011;24210;51.460;6.148;2022-09-03T18:49:10;4.57;;;2.75;;
38425;SDS011;24210;51.460;6.148;2022-09-03T18:57:40;15.80;;;3.88;;
38425;SDS011;24210;51.460;6.148;2022-09-03T19:00:29;12.07;;;5.57;;
38425;SDS011;24210;51.460;6.148;2022-09-03T19:06:11;12.60;;;3.20;;
38425;SDS011;24210;51.460;6.148;2022-09-03T19:08:59;19.77;;;4.32;;
38425;SDS011;24210;51.460;6.148;2022-09-03T19:14:38;21.92;;;5.75;;
38425;SDS011;24210;51.460;6.148;2022-09-03T19:17:51;24.80;;;5.80;;
38425;SDS011;24210;51.460;6.148;2022-09-03T19:20:29;20.95;;;5.47;;
38425;SDS011;24210;51.460;6.148;2022-09-03T19:23:13;15.20;;;4.80;;
38425;SDS011;24210;51.460;6.148;2022-09-03T19:26:00;12.50;;;5.05;;
38425;SDS011;24210;51.460;6.148;2022-09-03T19:28:46;11.90;;;4.18;;
38425;SDS011;24210;51.460;6.148;2022-09-03T19:31:47;11.35;;;3.70;;
38425;SDS011;24210;51.460;6.148;2022-09-03T19:34:42;11.40;;;3.97;;
38425;SDS011;24210;51.460;6.148;2022-09-03T19:46:46;16.25;;;5.55;;
38425;SDS011;24210;51.460;6.148;2022-09-03T19:55:08;12.05;;;3.85;;
38425;SDS011;24210;51.460;6.148;2022-09-03T19:57:53;9.33;;;3.87;;